MDT,Max TemperatureF,Mean TemperatureF,Min TemperatureF,Max Dew PointF,MeanDew PointF,Min DewpointF,Max Humidity, Mean Humidity, Min Humidity, Max Sea Level PressureIn, Mean Sea Level PressureIn, Min Sea Level PressureIn, Max VisibilityMiles, Mean VisibilityMiles, Min VisibilityMiles, Max Wind SpeedMPH, Mean Wind SpeedMPH, Max Gust SpeedMPH,PrecipitationIn, CloudCover, Events, WindDirDegrees
2013-6-1,70,58,45,43,41,36,74,53,32,30.19,30.05,29.88,10,10,10,32,18,43,T,5,Rain,340
2013-6-2,78,59,40,46,42,36,86,58,29,30.19,30.03,29.85,10,10,10,25,13,31,T,0,,159
2013-6-3,91,71,51,55,48,43,77,50,23,29.84,29.68,29.55,10,9,2,41,16,53,0.00,0,Thunderstorm,138
2013-6-4,77,67,57,58,50,44,90,64,38,30.04,29.92,29.73,10,10,10,25,13,31,T,4,,49
2013-6-5,69,58,47,49,46,41,93,66,39,30.19,30.12,30.06,10,10,6,25,8,35,0.08,6,Rain,7
2013-6-6,78,61,43,49,46,41,92,61,30,30.13,30.04,29.96,10,10,9,17,5,25,0.00,0,,139
2013-6-7,83,65,47,53,47,43,93,60,26,30.03,29.90,29.74,10,10,6,16,6,36,T,0,,129
2013-6-8,82,67,51,56,51,41,78,51,23,29.94,29.74,29.57,10,10,7,35,12,46,0.02,2,Rain-Thunderstorm,354
2013-6-9,87,69,51,51,46,42,83,52,21,29.96,29.89,29.81,10,10,10,14,8,17,0.00,0,,331
2013-6-10,102,80,57,66,49,40,73,43,12,29.84,29.74,29.63,10,10,10,20,9,24,0.03,0,Thunderstorm,145
2013-6-11,100,82,64,64,57,49,84,52,20,29.67,29.60,29.49,10,10,9,32,10,43,0.00,0,,70
2013-6-12,92,75,57,62,54,45,93,57,20,30.06,29.91,29.71,10,10,10,24,12,30,0.00,0,,3
2013-6-13,86,70,53,61,53,49,89,62,34,30.20,30.05,29.86,10,10,6,29,11,35,0.03,3,Rain-Thunderstorm,137
2013-6-14,91,79,66,64,58,51,87,57,26,29.95,29.81,29.75,10,10,10,16,11,21,0.00,0,Thunderstorm,124
2013-6-15,88,74,59,61,58,54,87,62,36,29.98,29.88,29.83,10,10,10,22,11,28,0.00,1,,53
2013-6-16,91,75,58,61,57,51,93,61,29,30.08,29.95,29.80,10,9,0,32,10,56,0.49,2,Rain-Thunderstorm,125
2013-6-17,83,69,54,61,56,52,100,67,34,30.10,30.04,29.99,10,9,3,18,7,24,0.04,1,Rain,91
2013-6-18,87,73,58,58,54,48,86,58,29,30.16,29.97,29.86,10,10,9,29,11,33,T,2,Rain-Thunderstorm,136
2013-6-19,86,72,57,62,57,46,86,65,44,29.96,29.81,29.70,10,10,8,32,17,43,0.00,2,,164
2013-6-20,92,78,63,66,62,58,93,64,34,29.73,29.69,29.66,10,10,10,28,9,33,0.00,0,,122
2013-6-21,97,81,64,65,55,41,87,54,20,29.79,29.68,29.57,10,9,2,39,11,54,0.00,0,,107
2013-6-22,89,75,61,66,58,49,73,58,43,29.89,29.75,29.59,10,10,5,40,13,53,0.24,3,Rain-Thunderstorm,74
2013-6-23,84,71,58,64,58,55,93,65,37,29.97,29.84,29.73,10,9,2,22,8,29,0.51,2,Rain-Thunderstorm,39
2013-6-24,88,73,58,68,60,53,90,67,43,29.97,29.72,29.59,10,10,2,22,8,29,T,1,Rain-Thunderstorm,121
2013-6-25,94,79,64,65,57,45,93,56,19,29.81,29.69,29.59,10,10,10,21,8,28,T,0,,341
2013-6-26,96,78,59,60,55,51,84,53,22,29.92,29.86,29.81,10,10,10,14,5,17,0.00,0,,176
2013-6-27,90,78,66,64,59,53,78,58,38,30.09,29.96,29.85,10,10,8,25,12,32,0.00,0,,16
2013-6-28,92,77,62,65,57,51,93,60,27,30.12,30.07,30.01,10,10,8,18,7,23,0.00,0,,28
2013-6-29,88,74,60,56,54,49,84,59,34,30.09,30.04,29.98,10,10,10,18,6,25,0.00,1,,17
2013-6-30,82,69,55,55,51,49,83,59,35,30.15,30.11,30.07,10,10,10,14,6,18,0.00,2,,49